Lannach, Austria
Current Conditions -  °F | °C
As of 5:20 AM on Tuesday 27 Jan 2015 (Local Time) from LOWG Reporting Station
Broken Clouds Broken Clouds  
Wind Chill: 23°   Ceiling: 10000
Heat Index: 23°   Visibility: 6mi
Dew Point: 23°   Wind: 2mph
Humidity: 100%   Direction: 360°N
Pressure: 30"   Gusts: NA
Location:  46.94°N, 15.33°E
Report Text: LOWG 270320Z 36002KT 9999 FEW070 BKN100 M05/M05 Q1016 NOSIG
Loading
Personal Weather Stations






























Interactive Weather Map New forecast layout! Learn more

10-Day Weather Forecast

Advertisements
Track Severe Weather on mobile